KTCM/TCM METAR and TAF weather

Enter ICAO airport designator
Station Type Date Time Source
KTCM METAR 2021/05/13 05:58 UTC NOAA

KTCM 130558Z 36008KT 7SM FEW070 14/09 A3016 RMK WND DATA ESTMD $


Station Type Date Time Source
KTCM Decoded METAR 2021/05/13 05:58 UTC NOAA

Tacoma / McChord Air Force Base, WA, United States (KTCM) 47-09N 122-29W 87M
May 13, 2021 - 01:58 AM EDT / 2021.05.13 0558 UTC
Wind: from the N (360 degrees) at 9 MPH (8 KT):0
Visibility: 7 mile(s):0
Sky conditions: mostly clear
Temperature: 57 F (14 C)
Dew Point: 48 F (9 C)
Relative Humidity: 71%
Pressure (altimeter): 30.16 in. Hg (1021 hPa)
ob: KTCM 130558Z 36008KT 7SM FEW070 14/09 A3016 RMK WND DATA ESTMD
cycle: 6

Station Type Date Time Source
KTCM TAF 2021/05/13 05:03 UTC NOAA

TAF KTCM 130500Z 1305/1411 VRB06KT 9999 SKC QNH3017INS
BECMG 1311/1312 VRB06KT 9999 BKN015 QNH3018INS
BECMG 1316/1317 01007KT 9999 SCT020 SCT200 QNH3019INS
BECMG 1321/1322 01012KT 9999 FEW200 QNH3015INS
BECMG 1403/1404 VRB06KT 9999 SCT180 QNH3010INS TX23/1322Z TN07/1313Z

Example: see airport list